Time;durP1;ratioP1;P1;durP2;ratioP2;P2;SDS_P1;SDS_P2;PMS_P1;PMS_P2;Temp;Humidity;BMP_temperature;BMP_pressure;BME280_temperature;BME280_humidity;BME280_pressure;Samples;Min_cycle;Max_cycle;Signal;HPM_P1;HPM_P2
2021/12/01 00:01:11;;;;;;;12.50;4.22;;;27.90;84.90;;;;;;5048252;28;20024;-41
2021/12/01 00:03:40;;;;;;;8.18;3.58;;;28.00;85.20;;;;;;5065683;28;20391;-45
2021/12/01 00:06:08;;;;;;;9.23;3.83;;;27.90;84.80;;;;;;5065469;28;20017;-44
2021/12/01 00:08:34;;;;;;;11.00;4.13;;;27.90;85.20;;;;;;5065483;28;20025;-48
2021/12/01 00:11:01;;;;;;;10.77;4.35;;;27.90;84.90;;;;;;5048080;28;20048;-42
2021/12/01 00:13:28;;;;;;;16.30;4.78;;;27.80;85.00;;;;;;5071223;28;20029;-44
2021/12/01 00:15:56;;;;;;;10.63;4.63;;;27.90;85.00;;;;;;5076899;28;20031;-42
2021/12/01 00:18:22;;;;;;;13.00;5.80;;;27.90;85.00;;;;;;5074905;28;20045;-45
2021/12/01 00:20:49;;;;;;;10.38;6.13;;;27.90;85.30;;;;;;5074749;28;20024;-44
2021/12/01 00:23:16;;;;;;;11.75;6.22;;;27.90;85.60;;;;;;5058544;28;20027;-42
2021/12/01 00:25:43;;;;;;;11.57;6.28;;;27.90;85.60;;;;;;5075757;28;20367;-41
2021/12/01 00:28:11;;;;;;;16.30;6.35;;;27.80;85.80;;;;;;5074778;28;20027;-46
2021/12/01 00:30:40;;;;;;;11.80;5.50;;;27.90;86.10;;;;;;5068188;28;20043;-47
2021/12/01 00:33:13;;;;;;;14.65;7.70;;;27.80;86.40;;;;;;5076234;28;20044;-46
2021/12/01 00:35:40;;;;;;;9.20;6.05;;;27.80;86.20;;;;;;5056861;28;20020;-44
2021/12/01 00:38:07;;;;;;;14.55;6.63;;;27.80;86.50;;;;;;5073847;28;20024;-43
2021/12/01 00:40:34;;;;;;;12.80;5.60;;;27.80;86.20;;;;;;5076449;28;20025;-43
2021/12/01 00:43:00;;;;;;;10.77;5.63;;;27.80;85.90;;;;;;5056037;28;20016;-47
2021/12/01 00:45:29;;;;;;;10.13;5.45;;;27.70;86.10;;;;;;5072570;28;20209;-46
2021/12/01 00:47:56;;;;;;;8.73;5.07;;;27.70;86.30;;;;;;5072592;28;20277;-46
2021/12/01 00:50:30;;;;;;;10.93;4.47;;;27.70;86.50;;;;;;5073123;28;20209;-41
2021/12/01 00:53:01;;;;;;;9.82;4.47;;;27.70;86.00;;;;;;5073696;28;20305;-43
2021/12/01 00:55:28;;;;;;;8.55;3.70;;;27.70;85.90;;;;;;5075177;28;20032;-42
2021/12/01 00:57:55;;;;;;;8.70;3.92;;;27.60;85.80;;;;;;5075098;28;20086;-42
2021/12/01 01:00:25;;;;;;;15.18;4.18;;;27.60;86.00;;;;;;5056495;28;20021;-42
2021/12/01 01:02:52;;;;;;;12.65;4.60;;;27.60;86.10;;;;;;5075335;28;20016;-44
2021/12/01 01:05:19;;;;;;;10.63;4.10;;;27.60;86.30;;;;;;5073152;28;20025;-45
2021/12/01 01:07:46;;;;;;;9.23;4.00;;;27.60;86.50;;;;;;5074063;28;20051;-48
2021/12/01 01:18:23;;;;;;;13.48;4.43;;;27.50;86.10;;;;;;5074719;28;20070;-44
2021/12/01 01:20:50;;;;;;;8.75;4.55;;;27.50;85.60;;;;;;5077453;28;20196;-43
2021/12/01 01:23:17;;;;;;;9.15;4.13;;;27.40;85.10;;;;;;5084038;28;20016;-43
2021/12/01 01:25:43;;;;;;;11.95;3.95;;;27.40;84.70;;;;;;5080322;28;20021;-44
2021/12/01 01:28:10;;;;;;;9.90;5.35;;;27.40;84.40;;;;;;5075767;28;20100;-42
2021/12/01 01:30:37;;;;;;;11.40;6.75;;;27.40;84.30;;;;;;5084140;28;20024;-42
2021/12/01 01:33:03;;;;;;;16.95;8.95;;;27.40;83.50;;;;;;5084613;28;20016;-45
2021/12/01 01:35:30;;;;;;;17.02;7.80;;;27.30;83.20;;;;;;5084503;28;20025;-45
2021/12/01 01:37:57;;;;;;;14.85;6.22;;;27.20;83.20;;;;;;5084291;28;20351;-44
2021/12/01 01:40:24;;;;;;;10.13;4.72;;;27.20;83.10;;;;;;5065262;28;20052;-49
2021/12/01 01:42:50;;;;;;;10.30;4.45;;;27.20;82.60;;;;;;5074688;28;20035;-45
2021/12/01 01:45:17;;;;;;;14.38;4.20;;;27.20;82.70;;;;;;5066262;28;20029;-46
2021/12/01 01:48:04;;;;;;;4.95;3.30;;;27.20;82.50;;;;;;5064170;28;20021;-42
2021/12/01 01:50:36;;;;;;;6.13;3.53;;;27.20;82.40;;;;;;5048649;28;20025;-44
2021/12/01 01:53:23;;;;;;;8.93;3.47;;;27.20;82.40;;;;;;5063610;28;20021;-42
2021/12/01 01:55:54;;;;;;;7.28;2.92;;;27.20;82.10;;;;;;5066714;28;20029;-46
2021/12/01 01:58:21;;;;;;;10.77;3.00;;;27.20;82.10;;;;;;5068461;28;20078;-44
2021/12/01 02:00:52;;;;;;;6.82;2.53;;;27.20;81.90;;;;;;5083670;28;20069;-47
2021/12/01 02:03:23;;;;;;;6.18;2.78;;;27.20;81.80;;;;;;5065844;28;20028;-48
2021/12/01 02:05:52;;;;;;;7.87;2.67;;;27.20;82.60;;;;;;5065987;28;20309;-48
2021/12/01 02:08:26;;;;;;;4.03;2.33;;;27.10;81.90;;;;;;5066570;28;20277;-46
2021/12/01 02:10:53;;;;;;;5.32;2.90;;;27.20;81.70;;;;;;5083938;28;20037;-44
2021/12/01 02:13:21;;;;;;;7.78;3.10;;;27.20;81.70;;;;;;5083985;28;20055;-48
2021/12/01 02:15:50;;;;;;;8.68;2.88;;;27.20;81.50;;;;;;5066150;28;20036;-45
2021/12/01 02:18:18;;;;;;;8.93;2.40;;;27.20;81.50;;;;;;5065639;28;20048;-44
2021/12/01 02:21:10;;;;;;;4.78;2.30;;;27.20;81.20;;;;;;5083765;28;20020;-42
2021/12/01 02:23:44;;;;;;;6.88;2.70;;;27.20;81.20;;;;;;5065916;28;20025;-47
2021/12/01 02:26:12;;;;;;;8.15;2.28;;;27.20;81.00;;;;;;5083429;28;20043;-47
2021/12/01 02:28:40;;;;;;;7.43;2.30;;;27.10;80.90;;;;;;5076682;28;20093;-45
2021/12/01 02:31:07;;;;;;;4.05;2.17;;;27.20;80.70;;;;;;5071353;28;20066;-49
2021/12/01 02:33:33;;;;;;;8.48;2.55;;;27.20;80.70;;;;;;5063096;28;20024;-43
2021/12/01 02:36:00;;;;;;;8.00;2.42;;;27.10;80.30;;;;;;5066434;28;20041;-45
2021/12/01 02:38:27;;;;;;;6.32;2.42;;;27.10;80.50;;;;;;5074784;28;20070;-53
2021/12/01 02:40:54;;;;;;;4.28;2.28;;;27.10;80.70;;;;;;5064840;28;20345;-48
2021/12/01 02:43:24;;;;;;;10.75;2.40;;;27.10;81.00;;;;;;5063571;28;20024;-46
2021/12/01 02:45:53;;;;;;;5.22;2.20;;;27.00;80.40;;;;;;5063736;28;20017;-44
2021/12/01 02:48:20;;;;;;;6.18;2.08;;;27.00;79.70;;;;;;5063937;28;20021;-44
2021/12/01 02:50:50;;;;;;;8.30;2.20;;;26.90;79.60;;;;;;5063693;28;20079;-43
2021/12/01 02:53:21;;;;;;;6.57;1.95;;;27.00;79.40;;;;;;5067359;28;20044;-43
2021/12/01 02:55:50;;;;;;;5.78;1.95;;;26.90;79.40;;;;;;5067284;28;20162;-52
2021/12/01 02:58:18;;;;;;;5.28;1.95;;;27.00;79.60;;;;;;5049671;28;20024;-52
2021/12/01 03:00:46;;;;;;;4.70;1.90;;;27.10;79.70;;;;;;5073798;28;20027;-51
2021/12/01 03:03:13;;;;;;;7.25;2.10;;;27.20;79.40;;;;;;5073154;28;20024;-51
2021/12/01 03:05:41;;;;;;;4.38;2.13;;;27.20;79.10;;;;;;5049765;28;20024;-51
2021/12/01 03:08:08;;;;;;;3.53;1.80;;;27.30;79.00;;;;;;5067573;28;20020;-51
2021/12/01 03:10:34;;;;;;;3.22;1.65;;;27.30;78.60;;;;;;5066979;28;20028;-54
2021/12/01 03:13:13;;;;;;;13.30;2.28;;;27.30;78.50;;;;;;5074053;28;20234;-51
2021/12/01 03:15:40;;;;;;;5.50;2.08;;;27.30;78.40;;;;;;5079129;28;20029;-54
2021/12/01 03:18:07;;;;;;;4.70;1.80;;;27.30;78.00;;;;;;5075311;28;20024;-50
2021/12/01 03:20:34;;;;;;;2.88;1.90;;;27.30;78.40;;;;;;5086755;28;20012;-51
2021/12/01 03:23:00;;;;;;;6.53;1.80;;;27.30;78.10;;;;;;5096828;28;20017;-54
2021/12/01 03:25:28;;;;;;;5.22;1.98;;;27.30;77.90;;;;;;5078226;28;20024;-50
2021/12/01 03:27:55;;;;;;;4.65;1.70;;;27.30;77.80;;;;;;5077331;28;20091;-50
2021/12/01 03:30:24;;;;;;;5.82;1.77;;;27.30;77.50;;;;;;5076267;28;20028;-51
2021/12/01 03:32:52;;;;;;;3.97;1.65;;;27.40;77.50;;;;;;5074891;28;20155;-52
2021/12/01 03:35:19;;;;;;;6.18;1.90;;;27.30;77.60;;;;;;5058251;28;20027;-53
2021/12/01 03:37:46;;;;;;;7.45;2.40;;;27.30;77.60;;;;;;5068692;28;20388;-52
2021/12/01 03:40:15;;;;;;;6.25;2.15;;;27.30;78.20;;;;;;5048626;28;20029;-50
2021/12/01 03:42:44;;;;;;;6.72;2.38;;;27.30;78.00;;;;;;5066270;28;20062;-55
2021/12/01 03:45:13;;;;;;;9.88;2.38;;;27.30;78.10;;;;;;5066191;28;20328;-52
2021/12/01 03:47:40;;;;;;;5.78;2.38;;;27.30;78.00;;;;;;5066279;28;20024;-51
2021/12/01 03:50:08;;;;;;;5.35;2.08;;;27.30;78.20;;;;;;5066570;28;20297;-54
2021/12/01 03:52:34;;;;;;;5.25;1.80;;;27.20;78.20;;;;;;5066232;28;20020;-53
2021/12/01 03:55:01;;;;;;;2.88;1.67;;;27.20;78.10;;;;;;5065989;28;20365;-53
2021/12/01 03:57:28;;;;;;;5.80;2.13;;;27.20;78.00;;;;;;5097007;28;20028;-55
2021/12/01 03:59:54;;;;;;;7.22;1.92;;;27.20;78.20;;;;;;5082845;28;20016;-54
2021/12/01 04:02:21;;;;;;;8.32;2.25;;;27.20;78.10;;;;;;5065997;28;20021;-55
2021/12/01 04:04:48;;;;;;;5.47;1.80;;;27.20;77.90;;;;;;5065213;28;20041;-54
2021/12/01 04:07:14;;;;;;;5.53;2.00;;;27.20;77.70;;;;;;5066189;28;20025;-53
2021/12/01 04:09:44;;;;;;;4.22;1.77;;;27.20;77.60;;;;;;5065522;28;20028;-55
2021/12/01 04:12:11;;;;;;;4.68;1.85;;;27.20;77.70;;;;;;5065506;28;20028;-54
2021/12/01 04:14:37;;;;;;;6.07;2.03;;;27.20;77.50;;;;;;5065756;28;20031;-52
2021/12/01 04:17:05;;;;;;;6.95;1.90;;;27.20;77.80;;;;;;5086764;28;20020;-52
2021/12/01 04:19:32;;;;;;;3.83;1.83;;;27.20;77.90;;;;;;5105822;28;20121;-51
2021/12/01 04:21:59;;;;;;;5.43;1.85;;;27.20;77.50;;;;;;5106148;28;20027;-57
2021/12/01 04:24:25;;;;;;;4.63;1.83;;;27.20;77.60;;;;;;5105751;28;20272;-52
2021/12/01 04:26:52;;;;;;;4.38;1.70;;;27.20;77.80;;;;;;5087922;28;20250;-54
2021/12/01 04:29:19;;;;;;;6.70;1.80;;;27.10;77.80;;;;;;5105491;28;20020;-52
2021/12/01 04:31:45;;;;;;;3.88;1.40;;;27.10;77.60;;;;;;5087503;28;20020;-53
2021/12/01 04:34:12;;;;;;;5.40;1.92;;;27.20;77.70;;;;;;5105722;28;20308;-53
2021/12/01 04:36:42;;;;;;;3.08;1.75;;;27.10;77.60;;;;;;5105180;28;20052;-53
2021/12/01 04:39:13;;;;;;;7.93;1.85;;;27.10;77.60;;;;;;5105250;28;20020;-53
2021/12/01 04:41:52;;;;;;;5.03;1.80;;;27.10;77.70;;;;;;5105607;28;20035;-56
2021/12/01 04:44:20;;;;;;;3.85;1.67;;;27.10;77.80;;;;;;5105571;28;20023;-57
2021/12/01 04:46:49;;;;;;;6.10;1.80;;;27.10;77.90;;;;;;5087422;28;20023;-54
2021/12/01 04:49:21;;;;;;;3.38;1.70;;;27.10;77.80;;;;;;5105180;28;20331;-54
2021/12/01 04:51:49;;;;;;;;;;;27.10;77.80;;;;;;5105784;28;20024;-52
2021/12/01 04:54:16;;;;;;;6.20;1.70;;;27.10;78.10;;;;;;5105184;28;19900;-53
2021/12/01 04:56:44;;;;;;;5.35;1.63;;;27.00;77.90;;;;;;5105019;28;20024;-53
2021/12/01 04:59:11;;;;;;;5.13;1.73;;;27.00;77.70;;;;;;5104903;28;20026;-54
2021/12/01 05:01:40;;;;;;;2.78;1.63;;;27.10;77.80;;;;;;5105335;28;20024;-51
2021/12/01 05:04:07;;;;;;;3.00;1.70;;;27.00;77.70;;;;;;5104996;28;20380;-54
2021/12/01 05:06:34;;;;;;;5.90;1.75;;;27.00;77.80;;;;;;5105094;28;20023;-56
2021/12/01 05:09:01;;;;;;;4.15;1.77;;;27.00;78.00;;;;;;5104906;28;20058;-54
2021/12/01 05:11:27;;;;;;;4.32;1.60;;;27.00;78.00;;;;;;5105141;28;20210;-56
2021/12/01 05:13:54;;;;;;;7.32;1.90;;;26.90;78.00;;;;;;5104696;28;20099;-56
2021/12/01 05:16:21;;;;;;;6.13;1.90;;;27.00;78.00;;;;;;5104182;28;20053;-55
2021/12/01 05:18:48;;;;;;;4.93;1.70;;;27.00;77.90;;;;;;5104609;28;20075;-52
2021/12/01 05:21:15;;;;;;;4.40;2.00;;;27.00;77.90;;;;;;5104762;28;20035;-51
2021/12/01 05:23:41;;;;;;;4.50;1.88;;;27.00;77.80;;;;;;5104754;28;20024;-55
2021/12/01 05:26:10;;;;;;;5.57;1.70;;;27.00;77.80;;;;;;5104659;28;20329;-51
2021/12/01 05:28:37;;;;;;;4.72;1.80;;;27.00;77.90;;;;;;5104343;28;20059;-53
2021/12/01 05:31:04;;;;;;;5.53;1.73;;;27.00;77.70;;;;;;5104719;28;20031;-50
2021/12/01 05:33:31;;;;;;;5.20;1.50;;;27.00;77.70;;;;;;5104486;28;20083;-52
2021/12/01 05:35:57;;;;;;;4.13;1.83;;;27.00;77.80;;;;;;5104298;28;20111;-51
2021/12/01 05:38:24;;;;;;;2.92;1.73;;;26.90;77.40;;;;;;5104388;28;20020;-49
2021/12/01 05:40:51;;;;;;;4.20;1.55;;;27.00;77.70;;;;;;5104223;28;20015;-50
2021/12/01 05:43:18;;;;;;;3.50;1.73;;;26.90;77.80;;;;;;5104313;28;20024;-53
2021/12/01 05:45:46;;;;;;;5.20;1.70;;;26.90;78.20;;;;;;5104914;28;20068;-56
2021/12/01 05:48:13;;;;;;;4.72;1.83;;;26.90;78.20;;;;;;5104357;28;20031;-52
2021/12/01 05:50:40;;;;;;;3.08;1.75;;;26.90;78.50;;;;;;5104256;28;20028;-50
2021/12/01 05:53:07;;;;;;;4.53;2.00;;;26.90;78.80;;;;;;5104116;28;20205;-50
2021/12/01 05:55:33;;;;;;;5.22;1.90;;;26.90;79.10;;;;;;5104245;28;20028;-51
2021/12/01 05:58:00;;;;;;;5.63;1.83;;;26.90;79.10;;;;;;5103874;28;20091;-53
2021/12/01 06:00:27;;;;;;;7.57;1.73;;;26.90;78.90;;;;;;5104205;28;20047;-51
2021/12/01 06:02:53;;;;;;;4.55;1.90;;;26.90;78.70;;;;;;5085921;28;20021;-53
2021/12/01 06:05:20;;;;;;;4.75;2.30;;;26.80;79.00;;;;;;5083872;28;20028;-51
2021/12/01 06:07:48;;;;;;;4.93;2.22;;;26.80;79.10;;;;;;5102946;28;20040;-53
2021/12/01 06:10:16;;;;;;;10.23;2.03;;;26.80;79.20;;;;;;5104106;28;20247;-52
2021/12/01 06:12:45;;;;;;;3.95;2.00;;;26.80;79.30;;;;;;5103823;28;20197;-54
2021/12/01 06:15:14;;;;;;;5.43;1.98;;;26.80;79.50;;;;;;5103961;28;20241;-51
2021/12/01 06:17:41;;;;;;;2.70;1.48;;;26.80;79.50;;;;;;5086498;28;20023;-52
2021/12/01 06:20:09;;;;;;;5.97;1.98;;;26.80;79.70;;;;;;5103803;28;20043;-55
2021/12/01 06:22:35;;;;;;;7.85;1.92;;;26.80;79.60;;;;;;5104009;28;20216;-52
2021/12/01 06:25:03;;;;;;;2.80;1.40;;;26.80;79.80;;;;;;5103768;28;20012;-51
2021/12/01 06:27:30;;;;;;;6.85;1.88;;;26.70;79.70;;;;;;5106560;28;20035;-54
2021/12/01 06:29:56;;;;;;;7.72;1.83;;;26.80;79.70;;;;;;5108072;28;20020;-52
2021/12/01 06:32:23;;;;;;;5.88;1.70;;;26.80;79.80;;;;;;5107884;28;20213;-54
2021/12/01 06:34:50;;;;;;;11.00;1.70;;;26.70;79.70;;;;;;5107721;28;20027;-58
2021/12/01 06:37:18;;;;;;;7.80;1.70;;;26.70;79.80;;;;;;5107534;28;20290;-52
2021/12/01 06:39:46;;;;;;;5.70;1.73;;;26.70;79.90;;;;;;5107610;28;20243;-51
2021/12/01 06:42:13;;;;;;;6.90;1.77;;;26.70;79.80;;;;;;5108061;28;20028;-54
2021/12/01 06:44:40;;;;;;;4.55;1.70;;;26.80;79.80;;;;;;5107875;28;20028;-51
2021/12/01 06:47:07;;;;;;;5.93;1.63;;;26.70;79.80;;;;;;5107961;28;20081;-56
2021/12/01 06:49:34;;;;;;;4.72;1.70;;;26.70;79.70;;;;;;5107699;28;20091;-52
2021/12/01 06:52:01;;;;;;;6.63;1.92;;;26.70;79.80;;;;;;5107752;28;20039;-54
2021/12/01 06:54:28;;;;;;;3.38;1.60;;;26.70;79.90;;;;;;5107442;28;20323;-50
2021/12/01 06:56:54;;;;;;;5.18;1.95;;;26.70;79.80;;;;;;5107732;28;20093;-53
2021/12/01 06:59:21;;;;;;;3.17;1.63;;;26.60;79.90;;;;;;5107501;28;20170;-55
2021/12/01 07:01:47;;;;;;;4.88;1.98;;;26.60;79.70;;;;;;5107687;28;20061;-52
2021/12/01 07:04:15;;;;;;;6.72;2.10;;;26.60;79.80;;;;;;5107218;28;20020;-55
2021/12/01 07:06:42;;;;;;;5.70;2.00;;;26.60;79.70;;;;;;5107345;28;20028;-50
2021/12/01 07:09:11;;;;;;;4.20;1.67;;;26.60;79.70;;;;;;5107125;28;20020;-51
2021/12/01 07:11:37;;;;;;;4.95;1.60;;;26.70;79.80;;;;;;5107464;28;20050;-53
2021/12/01 07:14:04;;;;;;;5.70;2.03;;;26.60;79.70;;;;;;5106941;28;20261;-52
2021/12/01 07:16:30;;;;;;;6.35;1.58;;;26.60;79.60;;;;;;5107311;28;20028;-56
2021/12/01 07:18:57;;;;;;;4.07;1.63;;;26.60;79.60;;;;;;5106865;28;20027;-51
2021/12/01 07:21:23;;;;;;;7.25;1.83;;;26.60;79.70;;;;;;5107096;28;20331;-52
2021/12/01 07:23:50;;;;;;;8.25;2.05;;;26.60;79.60;;;;;;5106919;28;20024;-51
2021/12/01 07:26:16;;;;;;;4.05;1.95;;;26.60;79.90;;;;;;5106663;28;20027;-52
2021/12/01 07:28:43;;;;;;;6.25;1.60;;;26.60;79.80;;;;;;5106713;28;20068;-51
2021/12/01 07:31:09;;;;;;;6.13;1.70;;;26.60;79.50;;;;;;5106844;28;20055;-51
2021/12/01 07:33:36;;;;;;;5.65;1.88;;;26.60;79.60;;;;;;5106721;28;20082;-53
2021/12/01 07:36:04;;;;;;;8.65;1.92;;;26.50;79.50;;;;;;5106298;28;20052;-54
2021/12/01 07:38:31;;;;;;;4.95;1.58;;;26.50;79.50;;;;;;5105596;28;20020;-49
2021/12/01 07:40:58;;;;;;;3.40;1.73;;;26.60;79.70;;;;;;5106720;28;20210;-56
2021/12/01 07:43:24;;;;;;;3.97;1.80;;;26.50;79.60;;;;;;5106807;28;20305;-58
2021/12/01 07:45:51;;;;;;;7.90;1.70;;;26.50;79.40;;;;;;5106538;28;20185;-53
2021/12/01 07:48:18;;;;;;;6.43;1.80;;;26.50;79.50;;;;;;5106444;28;20027;-52
2021/12/01 07:50:45;;;;;;;6.35;1.55;;;26.50;79.60;;;;;;5106323;28;20031;-53
2021/12/01 07:53:12;;;;;;;3.50;1.70;;;26.50;79.70;;;;;;5106341;28;20027;-57
2021/12/01 07:55:41;;;;;;;3.00;1.55;;;26.50;79.50;;;;;;5106351;28;20092;-52
2021/12/01 07:58:08;;;;;;;3.97;1.52;;;26.50;79.60;;;;;;5105986;28;20212;-56
2021/12/01 08:00:34;;;;;;;4.38;2.00;;;26.50;79.60;;;;;;5106302;28;20087;-56
2021/12/01 08:03:01;;;;;;;9.07;1.98;;;26.50;79.40;;;;;;5106160;28;20020;-54
2021/12/01 08:05:27;;;;;;;2.65;1.90;;;26.50;79.80;;;;;;5106034;28;20020;-57
2021/12/01 08:07:55;;;;;;;4.13;1.88;;;26.40;79.90;;;;;;5105982;28;20114;-55
2021/12/01 08:10:22;;;;;;;5.22;2.15;;;26.40;79.30;;;;;;5106297;28;20035;-54
2021/12/01 08:12:49;;;;;;;5.65;1.95;;;26.40;79.20;;;;;;5105849;28;20073;-52
2021/12/01 08:15:15;;;;;;;6.82;2.28;;;26.40;79.00;;;;;;5106007;28;20297;-54
2021/12/01 08:17:42;;;;;;;10.25;2.17;;;26.40;79.20;;;;;;5105841;28;20027;-53
2021/12/01 08:20:09;;;;;;;6.93;2.05;;;26.40;79.00;;;;;;5105618;28;20016;-52
2021/12/01 08:22:36;;;;;;;5.40;1.92;;;26.40;79.20;;;;;;5105775;28;20016;-51
2021/12/01 08:25:03;;;;;;;4.28;1.90;;;26.40;79.10;;;;;;5105705;28;20016;-51
2021/12/01 08:27:30;;;;;;;4.70;2.20;;;26.40;79.10;;;;;;5105536;28;20023;-52
2021/12/01 08:29:57;;;;;;;3.20;1.80;;;26.40;79.20;;;;;;5105557;28;20152;-52
2021/12/01 08:32:23;;;;;;;6.35;2.38;;;26.40;79.20;;;;;;5105430;28;20087;-51
2021/12/01 08:34:51;;;;;;;4.90;2.08;;;26.40;79.10;;;;;;5105362;28;20016;-56
2021/12/01 08:37:19;;;;;;;5.93;2.17;;;26.30;79.10;;;;;;5105158;28;20060;-50
2021/12/01 08:39:50;;;;;;;3.35;2.20;;;26.30;79.20;;;;;;5105404;28;20032;-49
2021/12/01 08:42:21;;;;;;;5.97;2.13;;;26.30;79.20;;;;;;5105374;28;20028;-56
2021/12/01 08:44:49;;;;;;;7.85;2.08;;;26.30;79.30;;;;;;5105197;28;20255;-55
2021/12/01 08:47:20;;;;;;;6.88;1.92;;;26.30;79.60;;;;;;5105355;28;20197;-58
2021/12/01 08:49:47;;;;;;;7.05;2.08;;;26.20;79.80;;;;;;5104916;28;20304;-54
2021/12/01 08:52:14;;;;;;;6.38;2.00;;;26.30;80.10;;;;;;5105621;28;20028;-54
2021/12/01 08:54:40;;;;;;;4.68;1.83;;;26.30;79.90;;;;;;5105152;28;20023;-54
2021/12/01 08:57:07;;;;;;;5.80;2.38;;;26.20;79.80;;;;;;5105340;28;20153;-58
2021/12/01 08:59:35;;;;;;;4.13;1.70;;;26.20;79.80;;;;;;5105119;28;20012;-52
2021/12/01 09:02:02;;;;;;;4.50;1.70;;;26.20;79.90;;;;;;5105244;28;20090;-53
2021/12/01 09:04:29;;;;;;;5.80;1.90;;;26.20;80.00;;;;;;5104846;28;20304;-52
2021/12/01 09:06:56;;;;;;;5.38;1.55;;;26.20;79.90;;;;;;5105415;28;20165;-53
2021/12/01 09:09:23;;;;;;;4.15;1.95;;;26.20;79.90;;;;;;5104883;28;20335;-54
2021/12/01 09:11:52;;;;;;;6.57;1.73;;;26.20;80.00;;;;;;5105063;28;20035;-54
2021/12/01 09:14:20;;;;;;;7.78;1.85;;;26.20;80.00;;;;;;5104828;28;20016;-55
2021/12/01 09:16:47;;;;;;;5.78;2.30;;;26.20;80.00;;;;;;5105007;28;20070;-54
2021/12/01 09:19:14;;;;;;;10.07;4.72;;;26.20;79.90;;;;;;5104540;28;20186;-54
2021/12/01 09:21:41;;;;;;;11.52;4.20;;;26.10;79.80;;;;;;5104982;28;20026;-56
2021/12/01 09:24:07;;;;;;;10.30;3.50;;;26.20;79.80;;;;;;5104550;28;20296;-55
2021/12/01 09:26:34;;;;;;;5.70;3.10;;;26.10;79.60;;;;;;5104900;28;20028;-52
2021/12/01 09:29:01;;;;;;;7.65;3.30;;;26.10;79.50;;;;;;5104442;28;20024;-53
2021/12/01 09:31:28;;;;;;;6.78;2.80;;;26.10;79.70;;;;;;5104791;28;20086;-53
2021/12/01 09:33:55;;;;;;;5.70;2.67;;;26.10;79.60;;;;;;5104351;28;20020;-56
2021/12/01 09:36:21;;;;;;;7.13;2.40;;;26.10;79.50;;;;;;5104141;28;20052;-53
2021/12/01 09:38:48;;;;;;;4.80;2.30;;;26.10;79.50;;;;;;5104366;28;20020;-57
2021/12/01 09:41:15;;;;;;;7.90;2.60;;;26.10;79.40;;;;;;5104554;28;20083;-53
2021/12/01 09:43:41;;;;;;;5.25;1.77;;;26.10;79.30;;;;;;5104533;28;20305;-56
2021/12/01 09:46:09;;;;;;;6.15;2.42;;;26.10;79.40;;;;;;5104870;28;20081;-55
2021/12/01 09:48:39;;;;;;;7.32;2.00;;;26.00;79.20;;;;;;5104209;28;20027;-57
2021/12/01 09:51:07;;;;;;;8.05;2.83;;;26.00;79.20;;;;;;5104461;28;20054;-56
2021/12/01 09:53:33;;;;;;;5.72;1.80;;;26.00;79.20;;;;;;5104337;28;20213;-55
2021/12/01 09:56:00;;;;;;;6.75;1.90;;;26.00;79.10;;;;;;5103962;28;20024;-54
2021/12/01 09:58:31;;;;;;;3.55;1.70;;;26.00;79.20;;;;;;5102413;28;20272;-52
2021/12/01 10:01:13;;;;;;;6.47;1.85;;;26.00;79.30;;;;;;5103634;28;20067;-55
2021/12/01 10:03:40;;;;;;;4.53;2.13;;;26.00;79.20;;;;;;5103898;28;20013;-54
2021/12/01 10:06:13;;;;;;;5.47;2.20;;;26.00;79.40;;;;;;5104106;28;20087;-50
2021/12/01 10:08:43;;;;;;;5.00;1.98;;;26.00;79.40;;;;;;5104072;28;20023;-56
2021/12/01 10:11:11;;;;;;;4.43;1.83;;;26.00;79.50;;;;;;5086040;28;20024;-53
2021/12/01 10:13:41;;;;;;;5.65;1.95;;;26.00;79.50;;;;;;5103876;28;20083;-58
2021/12/01 10:16:12;;;;;;;4.57;1.70;;;26.00;79.30;;;;;;5104081;28;20031;-57
2021/12/01 10:18:47;;;;;;;4.37;1.63;;;25.90;79.30;;;;;;5104174;28;20035;-57
2021/12/01 10:21:20;;;;;;;4.85;1.85;;;26.00;79.30;;;;;;5104090;28;20031;-52
2021/12/01 10:23:53;;;;;;;7.85;1.95;;;26.00;79.20;;;;;;5104054;28;20172;-57
2021/12/01 10:26:42;;;;;;;6.97;2.20;;;25.90;79.00;;;;;;5104109;28;20028;-54
2021/12/01 10:29:21;;;;;;;12.52;2.35;;;25.90;79.40;;;;;;5104144;28;20082;-55
2021/12/01 10:31:58;;;;;;;9.25;2.40;;;25.90;79.50;;;;;;5104037;28;20040;-52
2021/12/01 10:34:35;;;;;;;10.38;2.60;;;25.90;79.60;;;;;;5085834;28;20027;-53
2021/12/01 10:37:29;;;;;;;5.88;2.45;;;25.90;79.90;;;;;;5103836;28;20371;-53
2021/12/01 10:40:10;;;;;;;3.47;1.70;;;25.90;80.00;;;;;;5103585;28;20061;-54
2021/12/01 10:42:57;;;;;;;4.57;1.88;;;25.90;80.00;;;;;;5103672;28;20043;-53
2021/12/01 10:45:46;;;;;;;6.90;2.10;;;25.80;80.10;;;;;;5085481;28;20024;-53
2021/12/01 10:48:22;;;;;;;6.35;2.22;;;25.80;80.20;;;;;;5103534;28;20016;-56
2021/12/01 10:50:49;;;;;;;6.50;2.20;;;25.80;80.20;;;;;;5100838;28;20019;-53
2021/12/01 10:53:19;;;;;;;6.32;2.33;;;25.80;80.20;;;;;;5102405;28;20028;-56
2021/12/01 10:55:54;;;;;;;4.38;2.45;;;25.80;80.30;;;;;;5103508;28;20035;-54
2021/12/01 10:58:21;;;;;;;8.07;2.63;;;25.80;80.40;;;;;;5103672;28;20028;-53
2021/12/01 11:00:54;;;;;;;7.60;3.80;;;25.80;80.40;;;;;;5103756;28;20016;-56
2021/12/01 11:03:27;;;;;;;6.47;3.55;;;25.80;80.50;;;;;;5103456;28;20020;-53
2021/12/01 11:06:27;;;;;;;;;;;25.80;80.60;;;;;;5086009;28;20020;-54
2021/12/01 11:08:57;;;;;;;7.25;3.45;;;25.80;80.90;;;;;;5097921;28;19908;-52
2021/12/01 11:11:34;;;;;;;7.95;3.15;;;25.80;81.10;;;;;;5103620;28;20024;-55
2021/12/01 11:14:09;;;;;;;8.43;3.28;;;25.80;81.10;;;;;;5105026;28;20087;-54
2021/12/01 11:16:37;;;;;;;5.47;3.08;;;25.80;81.00;;;;;;5107407;28;20034;-55
2021/12/01 11:19:04;;;;;;;6.63;2.45;;;25.80;80.90;;;;;;5106788;28;20375;-54
2021/12/01 11:21:31;;;;;;;8.30;2.90;;;25.80;81.00;;;;;;5107162;28;20095;-53
2021/12/01 11:24:00;;;;;;;8.48;3.17;;;25.80;80.80;;;;;;5106750;28;20020;-41
2021/12/01 11:26:31;;;;;;;8.73;2.55;;;25.80;80.50;;;;;;5105892;28;20035;-46
2021/12/01 11:29:01;;;;;;;8.87;2.50;;;25.80;80.80;;;;;;5100265;28;20036;-52
2021/12/01 11:31:33;;;;;;;8.35;2.40;;;25.80;80.60;;;;;;5075515;28;20025;-46
2021/12/01 11:34:21;;;;;;;4.75;2.30;;;25.80;80.60;;;;;;5066143;28;20025;-45
2021/12/01 11:36:51;;;;;;;12.60;2.83;;;25.90;80.50;;;;;;5065861;28;20052;-49
2021/12/01 11:39:22;;;;;;;8.73;2.63;;;25.90;80.30;;;;;;5066030;28;20028;-45
2021/12/01 11:41:51;;;;;;;8.70;2.20;;;25.90;80.00;;;;;;5066485;28;20024;-51
2021/12/01 11:44:19;;;;;;;5.82;2.40;;;26.00;80.00;;;;;;5065339;28;20059;-45
2021/12/01 11:46:50;;;;;;;7.40;2.90;;;26.00;79.60;;;;;;5066393;28;20112;-51
2021/12/01 11:49:18;;;;;;;7.63;2.63;;;26.00;79.60;;;;;;5066157;28;20224;-52
2021/12/01 11:51:54;;;;;;;6.63;2.22;;;26.00;79.40;;;;;;5066139;28;20017;-46
2021/12/01 11:54:22;;;;;;;6.38;2.15;;;26.10;79.40;;;;;;5078743;28;20209;-53
2021/12/01 11:57:01;;;;;;;5.40;2.30;;;26.10;79.20;;;;;;5106711;28;20299;-49
2021/12/01 11:59:29;;;;;;;5.82;2.72;;;26.10;79.40;;;;;;5106270;28;20038;-46
2021/12/01 12:01:57;;;;;;;7.28;2.80;;;26.20;79.50;;;;;;5106569;28;20024;-54
2021/12/01 12:04:26;;;;;;;11.43;2.55;;;26.20;79.60;;;;;;5105899;28;20016;-57
2021/12/01 12:07:00;;;;;;;7.53;2.25;;;26.20;79.60;;;;;;5088215;28;20351;-56
2021/12/01 12:09:28;;;;;;;7.90;2.40;;;26.30;79.70;;;;;;5106313;28;20065;-56
2021/12/01 12:11:59;;;;;;;6.10;2.60;;;26.20;79.50;;;;;;5105963;28;20020;-50
2021/12/01 12:14:38;;;;;;;6.88;2.30;;;26.30;79.50;;;;;;5105761;28;20008;-51
2021/12/01 12:17:20;;;;;;;6.40;2.45;;;26.30;79.60;;;;;;5104234;28;20036;-50
2021/12/01 12:19:57;;;;;;;6.60;2.15;;;26.40;79.60;;;;;;5105818;28;20051;-48
2021/12/01 12:22:42;;;;;;;4.35;2.10;;;26.40;79.60;;;;;;5105494;28;20027;-50
2021/12/01 12:25:12;;;;;;;4.88;1.92;;;26.40;79.60;;;;;;5104913;28;20012;-50
2021/12/01 12:27:43;;;;;;;7.55;2.40;;;26.40;79.60;;;;;;5105427;28;20307;-46
2021/12/01 12:30:29;;;;;;;6.75;1.98;;;26.50;79.50;;;;;;5086529;28;20030;-48
2021/12/01 12:33:17;;;;;;;10.38;1.98;;;26.50;79.50;;;;;;5105011;28;20054;-51
2021/12/01 12:35:49;;;;;;;17.42;2.28;;;26.60;79.50;;;;;;5090949;28;20384;-48
2021/12/01 12:38:16;;;;;;;6.17;1.83;;;26.60;79.40;;;;;;5073734;28;20251;-54
2021/12/01 12:40:44;;;;;;;13.52;2.17;;;26.60;79.30;;;;;;5083425;28;20025;-49
2021/12/01 12:43:12;;;;;;;6.10;1.80;;;26.60;79.20;;;;;;5064808;28;20013;-53
2021/12/01 12:45:42;;;;;;;6.22;1.90;;;26.60;79.40;;;;;;5064806;28;20336;-50
2021/12/01 12:48:29;;;;;;;4.65;1.75;;;26.60;79.50;;;;;;5065085;28;20270;-50
2021/12/01 12:51:29;;;;;;;7.07;1.80;;;26.70;79.50;;;;;;5065145;28;20043;-48
2021/12/01 12:54:06;;;;;;;5.28;1.67;;;26.70;79.50;;;;;;5064561;28;20045;-51
2021/12/01 12:56:33;;;;;;;6.07;2.00;;;26.80;79.60;;;;;;5081084;28;20051;-52
2021/12/01 12:59:20;;;;;;;5.75;1.85;;;26.80;79.60;;;;;;5084944;28;20031;-51
2021/12/01 13:02:11;;;;;;;8.02;1.80;;;26.80;79.60;;;;;;5067053;28;20251;-48
2021/12/01 13:05:00;;;;;;;4.65;1.75;;;26.80;79.60;;;;;;5071750;28;20123;-52